Time;durP1;ratioP1;P1;durP2;ratioP2;P2;SDS_P1;SDS_P2;PMS_P1;PMS_P2;Temp;Humidity;BMP_temperature;BMP_pressure;BME280_temperature;BME280_humidity;BME280_pressure;Samples;Min_cycle;Max_cycle;Signal;HPM_P1;HPM_P2
2022/09/08 00:02:35;;;;;;;10.50;7.72;;;;;;;16.31;100.00;100075.06;6303313;28;20446;-87
2022/09/08 00:05:48;;;;;;;12.57;7.22;;;;;;;16.30;100.00;100081.28;6302465;28;20051;-87
2022/09/08 00:08:51;;;;;;;8.30;7.35;;;;;;;16.26;100.00;100072.97;6303640;28;20461;-87
2022/09/08 00:11:54;;;;;;;9.88;7.68;;;;;;;16.24;100.00;100069.69;6307966;28;20051;-87
2022/09/08 00:14:58;;;;;;;8.90;7.40;;;;;;;16.21;100.00;100071.84;6305663;28;20033;-86
2022/09/08 00:18:00;;;;;;;9.55;7.40;;;;;;;16.17;100.00;100068.75;6308806;28;20044;-86
2022/09/08 00:21:01;;;;;;;11.75;7.47;;;;;;;16.14;100.00;100066.47;6303702;28;20055;-87
2022/09/08 00:24:03;;;;;;;9.38;7.70;;;;;;;16.12;100.00;100069.28;6309248;28;20074;-87
2022/09/08 00:27:05;;;;;;;10.13;7.97;;;;;;;16.13;100.00;100063.06;6298643;28;20081;-87
2022/09/08 00:30:07;;;;;;;9.50;7.72;;;;;;;16.13;100.00;100057.03;6290552;28;20052;-87
2022/09/08 00:33:09;;;;;;;9.70;7.95;;;;;;;16.11;100.00;100057.19;6298743;28;20070;-87
2022/09/08 00:36:16;;;;;;;8.65;7.50;;;;;;;16.09;100.00;100046.09;6298282;28;20533;-87
2022/09/08 00:39:18;;;;;;;9.98;8.70;;;;;;;16.08;100.00;100041.06;6304676;28;20052;-86
2022/09/08 00:42:19;;;;;;;12.15;8.68;;;;;;;16.08;100.00;100044.47;6297436;28;20042;-87
2022/09/08 00:45:21;;;;;;;12.93;8.85;;;;;;;16.07;100.00;100036.81;6290721;28;20040;-87
2022/09/08 00:48:23;;;;;;;10.45;8.23;;;;;;;16.06;100.00;100030.78;6304340;28;20483;-87
2022/09/08 00:51:26;;;;;;;10.07;8.38;;;;;;;16.05;100.00;100031.78;6309835;28;20032;-87
2022/09/08 00:54:28;;;;;;;8.82;7.13;;;;;;;16.07;100.00;100032.41;6308497;28;20044;-87
2022/09/08 00:57:30;;;;;;;7.85;6.80;;;;;;;16.05;100.00;100029.16;6300272;28;20553;-87
2022/09/08 01:00:35;;;;;;;8.68;6.55;;;;;;;16.03;100.00;100025.91;6308525;28;20036;-87
2022/09/08 01:03:40;;;;;;;7.85;6.35;;;;;;;16.00;100.00;100020.19;6299415;28;20044;-87
2022/09/08 01:14:05;;;;;;;5.97;4.85;;;;;;;15.87;100.00;100016.31;6296711;28;20040;-87
2022/09/08 01:17:14;;;;;;;6.95;4.85;;;;;;;15.86;100.00;100013.88;6308392;28;20143;-87
2022/09/08 01:20:19;;;;;;;7.05;4.97;;;;;;;15.83;100.00;100020.25;6298162;28;20146;-87
2022/09/08 01:23:29;;;;;;;5.68;4.80;;;;;;;15.79;100.00;100013.72;6308683;28;20088;-87
2022/09/08 01:27:08;;;;;;;5.88;5.15;;;;;;;15.78;100.00;100009.50;6295888;28;20520;-87
2022/09/08 01:30:10;;;;;;;7.75;5.70;;;;;;;15.75;100.00;100006.41;6301137;28;20040;-87
2022/09/08 01:33:14;;;;;;;7.85;5.88;;;;;;;15.72;100.00;100007.53;6304399;28;20185;-87
2022/09/08 01:36:17;;;;;;;8.25;6.80;;;;;;;15.71;100.00;100009.34;6305023;28;20079;-87
2022/09/08 01:39:19;;;;;;;9.90;7.30;;;;;;;15.69;100.00;100013.91;6308098;28;20024;-87
2022/09/08 01:42:22;;;;;;;8.20;7.00;;;;;;;15.69;100.00;100008.69;6303435;28;20131;-87
2022/09/08 01:45:24;;;;;;;7.88;7.07;;;;;;;15.64;100.00;100010.97;6308696;28;20036;-87
2022/09/08 01:48:25;;;;;;;9.02;7.25;;;;;;;15.60;100.00;100001.84;6309213;28;20574;-87
2022/09/08 01:51:27;;;;;;;7.90;6.93;;;;;;;15.56;100.00;100012.78;6306930;28;20125;-87
2022/09/08 01:54:29;;;;;;;11.48;7.90;;;;;;;15.50;100.00;99998.59;6307035;28;20754;-87
2022/09/08 01:57:31;;;;;;;9.15;7.50;;;;;;;15.47;100.00;99983.28;6303501;28;20052;-87
2022/09/08 02:00:33;;;;;;;9.98;8.38;;;;;;;15.45;100.00;99980.03;6309847;28;20405;-87
2022/09/08 02:03:35;;;;;;;9.07;7.43;;;;;;;15.42;100.00;99973.34;6297980;28;20044;-87
2022/09/08 02:06:37;;;;;;;9.15;8.05;;;;;;;15.42;100.00;99981.16;6302412;28;20528;-87
2022/09/08 02:09:39;;;;;;;9.52;8.00;;;;;;;15.40;100.00;99988.38;6304788;28;20040;-87
2022/09/08 02:12:41;;;;;;;9.20;7.57;;;;;;;15.38;100.00;99981.66;6303303;28;20133;-87
2022/09/08 02:15:42;;;;;;;10.73;7.78;;;;;;;15.35;100.00;99982.81;6308420;28;20051;-87
2022/09/08 02:18:44;;;;;;;8.98;7.40;;;;;;;15.30;100.00;99977.28;6307797;28;20352;-87
2022/09/08 02:21:46;;;;;;;10.23;7.57;;;;;;;15.26;100.00;99986.44;6299402;28;20043;-87
2022/09/08 02:24:47;;;;;;;7.90;7.13;;;;;;;15.20;100.00;99974.84;6324426;28;20048;-87
2022/09/08 02:27:53;;;;;;;8.50;7.70;;;;;;;15.15;100.00;99969.31;6294980;28;20044;-87
2022/09/08 02:31:02;;;;;;;9.30;7.57;;;;;;;15.12;100.00;99963.63;6304319;28;20040;-87
2022/09/08 02:34:04;;;;;;;9.20;7.28;;;;;;;15.10;100.00;99955.94;6307410;28;20044;-87
2022/09/08 02:37:06;;;;;;;9.32;7.25;;;;;;;15.12;100.00;99950.59;6298034;28;20044;-87
2022/09/08 02:40:09;;;;;;;9.60;7.30;;;;;;;15.12;100.00;99940.97;6302228;28;20044;-87
2022/09/08 02:43:11;;;;;;;7.78;7.03;;;;;;;15.13;100.00;99945.22;6300098;28;20040;-87
2022/09/08 02:46:12;;;;;;;8.65;7.13;;;;;;;15.15;100.00;99942.44;6305177;28;20044;-87
2022/09/08 02:49:14;;;;;;;8.00;7.20;;;;;;;15.18;100.00;99942.09;6298834;28;20082;-87
2022/09/08 02:52:16;;;;;;;6.45;5.85;;;;;;;15.20;100.00;99948.75;6301212;28;20047;-87
2022/09/08 02:55:18;;;;;;;7.63;6.32;;;;;;;15.23;100.00;99951.06;6295537;28;20405;-87
2022/09/08 02:58:20;;;;;;;8.23;6.82;;;;;;;15.27;100.00;99962.78;6308939;28;20040;-87
2022/09/08 03:01:22;;;;;;;8.48;6.47;;;;;;;15.32;100.00;99961.47;6301386;28;20200;-87
2022/09/08 03:04:24;;;;;;;9.77;7.88;;;;;;;15.37;100.00;99956.56;6296474;28;20073;-87
2022/09/08 03:07:26;;;;;;;9.25;7.65;;;;;;;15.41;100.00;99950.06;6291086;28;20052;-87
2022/09/08 03:10:28;;;;;;;10.73;8.15;;;;;;;15.44;100.00;99947.91;6304678;28;20524;-87
2022/09/08 03:13:30;;;;;;;8.05;7.05;;;;;;;15.45;100.00;99939.13;6302429;28;20044;-87
2022/09/08 03:16:32;;;;;;;8.50;6.85;;;;;;;15.46;100.00;99938.13;6301758;28;20105;-87
2022/09/08 03:19:34;;;;;;;9.65;7.90;;;;;;;15.48;100.00;99945.81;6309527;28;20036;-87
2022/09/08 03:22:35;;;;;;;8.82;7.35;;;;;;;15.48;100.00;99951.81;6299318;28;20040;-87
2022/09/08 03:25:37;;;;;;;8.90;7.88;;;;;;;15.48;100.00;99951.81;6307993;28;20079;-87
2022/09/08 03:28:40;;;;;;;10.50;7.13;;;;;;;15.47;100.00;99944.97;6309817;28;20112;-87
2022/09/08 03:31:42;;;;;;;9.68;7.40;;;;;;;15.44;100.00;99947.09;6296908;28;20044;-87
2022/09/08 03:34:45;;;;;;;8.52;7.38;;;;;;;15.43;100.00;99935.88;6307128;28;20387;-87
2022/09/08 03:37:47;;;;;;;9.57;8.25;;;;;;;15.41;100.00;99934.41;6306991;28;20059;-87
2022/09/08 03:40:49;;;;;;;12.32;8.75;;;;;;;15.42;100.00;99928.19;6276504;28;20036;-87
2022/09/08 03:43:51;;;;;;;11.25;8.57;;;;;;;15.46;100.00;99919.06;6310482;28;20114;-87
2022/09/08 03:46:52;;;;;;;12.25;8.10;;;;;;;15.45;100.00;99907.81;6303907;28;20082;-87
2022/09/08 03:49:54;;;;;;;10.02;8.20;;;;;;;15.45;100.00;99907.00;6304885;28;20033;-87
2022/09/08 03:52:56;;;;;;;10.35;8.63;;;;;;;15.45;100.00;99914.81;6309260;28;20040;-87
2022/09/08 03:55:58;;;;;;;10.65;8.10;;;;;;;15.43;100.00;99907.19;6307567;28;20047;-87
2022/09/08 03:59:00;;;;;;;11.82;8.73;;;;;;;15.43;100.00;99898.53;6310979;28;20048;-87
2022/09/08 04:02:02;;;;;;;12.77;9.52;;;;;;;15.41;100.00;99892.69;6310714;28;20040;-87
2022/09/08 04:05:04;;;;;;;11.50;9.07;;;;;;;15.42;100.00;99882.06;6307557;28;20141;-87
2022/09/08 04:08:06;;;;;;;13.13;10.15;;;;;;;15.43;100.00;99885.50;6302924;28;20123;-87
2022/09/08 04:11:10;;;;;;;14.10;10.63;;;;;;;15.43;100.00;99882.91;6295613;28;20059;-87
2022/09/08 04:14:11;;;;;;;13.82;11.23;;;;;;;15.45;100.00;99879.13;6308139;28;20029;-87
2022/09/08 04:17:13;;;;;;;13.02;10.60;;;;;;;15.47;100.00;99863.28;6300760;28;20040;-87
2022/09/08 04:20:17;;;;;;;15.43;10.93;;;;;;;15.49;100.00;99858.72;6307480;28;20032;-87
2022/09/08 04:23:18;;;;;;;17.25;13.13;;;;;;;15.48;100.00;99842.28;6306380;28;20044;-87
2022/09/08 04:26:20;;;;;;;16.83;12.45;;;;;;;15.52;100.00;99834.91;6298750;28;20177;-87
2022/09/08 04:29:22;;;;;;;15.93;12.18;;;;;;;15.52;100.00;99827.09;6298430;28;20051;-87
2022/09/08 04:32:25;;;;;;;17.48;12.32;;;;;;;15.52;100.00;99837.50;6308529;28;20480;-87
2022/09/08 04:35:26;;;;;;;15.52;12.48;;;;;;;15.53;100.00;99831.34;6309361;28;20036;-87
2022/09/08 04:38:28;;;;;;;18.23;13.18;;;;;;;15.54;100.00;99839.97;6307418;28;20044;-87
2022/09/08 04:41:31;;;;;;;17.38;12.25;;;;;;;15.52;100.00;99838.31;6302236;28;20078;-87
2022/09/08 04:44:34;;;;;;;15.82;10.05;;;;;;;15.47;100.00;99834.59;6293200;28;20031;-87
2022/09/08 04:47:35;;;;;;;11.25;9.57;;;;;;;15.40;100.00;99838.88;6300870;28;20063;-87
2022/09/08 04:50:37;;;;;;;12.18;9.00;;;;;;;15.32;100.00;99838.91;6303003;28;20036;-87
2022/09/08 04:53:39;;;;;;;13.45;9.50;;;;;;;15.26;100.00;99838.59;6305602;28;20489;-87
2022/09/08 04:56:41;;;;;;;14.30;8.93;;;;;;;15.23;100.00;99844.16;6284453;28;20041;-87
2022/09/08 04:59:43;;;;;;;11.88;9.02;;;;;;;15.21;100.00;99847.94;6307583;28;20055;-87
2022/09/08 05:02:46;;;;;;;12.00;8.82;;;;;;;15.24;100.00;99856.22;6295701;28;20612;-87
2022/09/08 05:05:47;;;;;;;10.77;8.38;;;;;;;15.23;100.00;99846.78;6303085;28;20040;-87
2022/09/08 05:08:52;;;;;;;11.77;9.05;;;;;;;15.23;100.00;99849.38;6296645;28;20489;-87
2022/09/08 05:11:55;;;;;;;12.18;9.10;;;;;;;15.21;100.00;99848.72;6271696;28;20063;-87
2022/09/08 05:14:56;;;;;;;11.43;9.38;;;;;;;15.23;100.00;99845.97;6280284;28;20486;-87
2022/09/08 05:17:58;;;;;;;12.40;9.50;;;;;;;15.23;100.00;99849.38;6275008;28;20079;-87
2022/09/08 05:21:00;;;;;;;15.25;9.50;;;;;;;15.28;100.00;99844.47;6266420;28;20340;-87
2022/09/08 05:24:04;;;;;;;12.27;9.18;;;;;;;15.31;100.00;99847.72;6289149;28;20045;-87
2022/09/08 05:27:06;;;;;;;10.40;8.90;;;;;;;15.33;100.00;99854.41;6278088;28;20040;-87
2022/09/08 05:30:08;;;;;;;10.68;9.05;;;;;;;15.40;100.00;99851.91;6278793;28;20051;-87
2022/09/08 05:33:10;;;;;;;12.43;9.65;;;;;;;15.48;100.00;99851.91;6279810;28;20053;-87
2022/09/08 05:36:21;;;;;;;15.40;12.15;;;;;;;15.54;100.00;99851.22;6276597;28;20048;-87
2022/09/08 05:39:23;;;;;;;18.60;13.95;;;;;;;15.62;100.00;99845.13;6277237;28;20041;-87
2022/09/08 05:42:25;;;;;;;21.15;15.27;;;;;;;15.68;100.00;99840.06;6273959;28;20612;-87
2022/09/08 05:45:27;;;;;;;19.75;15.32;;;;;;;15.77;100.00;99837.44;6276723;28;20048;-87
2022/09/08 05:48:30;;;;;;;24.52;16.05;;;;;;;15.86;100.00;99839.00;6276619;28;20072;-87
2022/09/08 05:51:32;;;;;;;24.98;17.50;;;;;;;15.91;100.00;99834.09;6269854;28;20839;-87
2022/09/08 05:54:34;;;;;;;27.58;17.35;;;;;;;16.00;100.00;99837.44;6270294;28;20041;-87
2022/09/08 05:57:36;;;;;;;23.48;17.30;;;;;;;16.04;100.00;99828.28;6278814;28;20524;-87
2022/09/08 06:00:38;;;;;;;22.90;16.08;;;;;;;16.05;100.00;99827.28;6289883;28;20513;-87
2022/09/08 06:03:40;;;;;;;20.77;16.25;;;;;;;16.07;100.00;99827.94;6277968;28;20029;-87
2022/09/08 06:06:42;;;;;;;21.20;15.38;;;;;;;16.08;100.00;99825.16;6264911;28;20041;-87
2022/09/08 06:09:44;;;;;;;22.58;16.00;;;;;;;16.13;100.00;99825.44;6270250;28;20498;-87
2022/09/08 06:12:46;;;;;;;26.77;16.63;;;;;;;16.15;100.00;99828.69;6272653;28;20043;-87
2022/09/08 06:15:49;;;;;;;21.75;16.33;;;;;;;16.19;100.00;99830.97;6278275;28;20029;-87
2022/09/08 06:18:51;;;;;;;23.58;16.08;;;;;;;16.24;100.00;99819.00;6273355;28;20455;-87
2022/09/08 06:21:52;;;;;;;23.08;17.02;;;;;;;16.27;100.00;99834.34;6285641;28;20064;-87
2022/09/08 06:24:54;;;;;;;26.05;17.42;;;;;;;16.30;100.00;99827.94;6285567;28;20037;-87
2022/09/08 06:28:26;;;;;;;23.52;17.20;;;;;;;16.33;100.00;99838.03;6282669;28;20129;-87
2022/09/08 06:31:32;;;;;;;26.90;16.58;;;;;;;16.36;100.00;99830.66;6276058;28;20123;-87
2022/09/08 06:34:40;;;;;;;24.20;17.65;;;;;;;16.43;100.00;99832.56;6270341;28;20091;-87
2022/09/08 06:37:47;;;;;;;23.08;16.08;;;;;;;16.48;100.00;99833.66;6272039;28;20067;-87
2022/09/08 06:40:59;;;;;;;23.90;17.27;;;;;;;16.57;100.00;99843.06;6278762;28;20218;-87
2022/09/08 06:44:09;;;;;;;25.55;17.45;;;;;;;16.68;100.00;99839.19;6286942;28;20115;-87
2022/09/08 06:47:19;;;;;;;27.27;18.40;;;;;;;16.85;100.00;99826.81;6285047;28;20543;-87
2022/09/08 06:50:22;;;;;;;33.45;20.00;;;;;;;17.05;100.00;99827.09;6271620;28;20055;-87
2022/09/08 06:53:32;;;;;;;29.52;19.58;;;;;;;17.27;100.00;99814.09;6275121;28;20045;-87
2022/09/08 06:56:47;;;;;;;30.63;19.55;;;;;;;17.42;100.00;99815.69;6266445;28;20503;-87
2022/09/08 07:00:29;;;;;;;29.85;20.45;;;;;;;17.59;100.00;99802.41;6290239;28;20618;-87
2022/09/08 07:03:36;;;;;;;32.75;20.38;;;;;;;17.66;100.00;99805.88;6274319;28;20644;-87
2022/09/08 07:06:50;;;;;;;29.38;19.75;;;;;;;17.64;100.00;99800.84;6286779;28;20048;-87
2022/09/08 07:10:04;;;;;;;28.95;19.58;;;;;;;17.59;100.00;99795.38;6275598;28;20040;-87
2022/09/08 07:13:12;;;;;;;29.65;19.55;;;;;;;17.55;100.00;99793.28;6275161;28;20113;-87
2022/09/08 07:16:29;;;;;;;27.70;19.55;;;;;;;17.52;100.00;99794.47;6281756;28;20032;-87
2022/09/08 07:19:57;;;;;;;30.30;19.90;;;;;;;17.52;100.00;99797.09;6283323;28;20155;-87
2022/09/08 07:23:05;;;;;;;30.58;19.92;;;;;;;17.51;100.00;99800.69;6272331;28;20048;-87
2022/09/08 07:26:37;;;;;;;26.88;18.85;;;;;;;17.49;100.00;99805.31;6266086;28;20098;-87
2022/09/08 07:29:43;;;;;;;29.13;19.10;;;;;;;17.51;100.00;99800.69;6279697;28;20037;-87
2022/09/08 07:32:57;;;;;;;32.65;19.17;;;;;;;17.50;100.00;99801.69;6271561;28;20369;-87
2022/09/08 07:37:05;;;;;;;25.02;17.65;;;;;;;17.52;100.00;99794.47;6288818;28;20555;-87
2022/09/08 07:40:17;;;;;;;27.75;18.45;;;;;;;17.63;100.00;99801.81;6202757;28;20057;-87
2022/09/08 07:43:19;;;;;;;25.38;17.65;;;;;;;17.71;100.00;99794.88;6200524;28;20585;-87
2022/09/08 07:46:48;;;;;;;24.25;17.20;;;;;;;17.81;100.00;99785.75;6199064;28;20143;-87
2022/09/08 07:50:09;;;;;;;23.95;17.40;;;;;;;17.91;100.00;99782.00;6190458;28;20054;-87
2022/09/08 07:53:52;;;;;;;22.70;16.05;;;;;;;17.94;100.00;99779.84;6207507;28;20056;-87
2022/09/08 07:57:02;;;;;;;19.50;15.52;;;;;;;17.94;100.00;99784.25;6207683;28;20049;-87
2022/09/08 08:00:52;;;;;;;24.08;16.45;;;;;;;17.98;100.00;99782.88;6202950;28;20509;-87
2022/09/08 08:04:14;;;;;;;17.73;14.25;;;;;;;18.08;100.00;99784.16;6196515;28;20061;-87
2022/09/08 08:07:36;;;;;;;19.83;14.48;;;;;;;18.19;100.00;99774.19;6202249;28;20050;-88
2022/09/08 08:11:03;;;;;;;18.25;13.27;;;;;;;18.38;100.00;99780.56;6202654;28;20181;-88
2022/09/08 08:14:23;;;;;;;19.73;13.80;;;;;;;18.57;100.00;99787.78;6190655;28;20081;-87
2022/09/08 08:17:34;;;;;;;14.50;12.05;;;;;;;18.75;100.00;99799.59;6277673;28;20876;-88
2022/09/08 08:20:43;;;;;;;19.17;12.63;;;;;;;18.86;100.00;99794.66;6279343;28;20124;-88
2022/09/08 08:24:24;;;;;;;16.88;12.98;;;;;;;18.89;100.00;99796.06;6275678;28;20503;-88
2022/09/08 08:27:34;;;;;;;16.50;12.50;;;;;;;18.85;100.00;99800.88;6263640;28;20048;-88
2022/09/08 08:30:43;;;;;;;14.15;11.98;;;;;;;18.78;100.00;99804.47;6273709;28;20052;-88
2022/09/08 08:33:54;;;;;;;18.23;13.02;;;;;;;18.70;100.00;99803.59;6282955;28;20254;-88
2022/09/08 08:37:03;;;;;;;18.52;13.70;;;;;;;18.65;100.00;99810.41;6292903;28;20048;-88
2022/09/08 08:40:37;;;;;;;18.17;13.50;;;;;;;18.62;100.00;99806.38;6282111;28;20040;-88
2022/09/08 08:44:12;;;;;;;19.33;13.15;;;;;;;18.55;100.00;99807.31;6274596;28;20170;-88
2022/09/08 08:47:47;;;;;;;17.50;13.90;;;;;;;18.48;100.00;99799.41;6274193;28;20410;-88
2022/09/08 08:50:58;;;;;;;17.80;14.00;;;;;;;18.48;100.00;99800.22;6280224;28;20055;-88
2022/09/08 08:54:18;;;;;;;17.17;12.88;;;;;;;18.52;100.00;99804.06;6282374;28;20052;-88
2022/09/08 08:57:54;;;;;;;18.10;11.73;;;;;;;18.68;100.00;99813.47;6282009;28;20044;-87
2022/09/08 09:01:30;;;;;;;11.73;9.80;;;;;;;18.86;100.00;99814.84;6275747;28;20401;-87
2022/09/08 09:04:44;;;;;;;12.18;9.35;;;;;;;19.01;100.00;99826.00;6276284;28;20518;-87
2022/09/08 09:07:57;;;;;;;10.50;8.73;;;;;;;19.08;100.00;99819.00;6284617;28;20047;-87
2022/09/08 09:11:37;;;;;;;9.25;7.93;;;;;;;19.17;100.00;99826.69;6280274;28;20049;-87
2022/09/08 09:15:16;;;;;;;10.00;8.40;;;;;;;19.17;100.00;99821.44;6270241;28;20602;-89
2022/09/08 09:19:20;;;;;;;9.85;8.02;;;;;;;19.09;100.00;99812.72;6272566;28;20123;-89
2022/09/08 09:22:44;;;;;;;8.77;7.88;;;;;;;19.06;100.00;99807.06;6228527;28;20565;-86
2022/09/08 09:25:59;;;;;;;8.75;7.25;;;;;;;19.05;100.00;99802.81;6232173;28;20059;-87
2022/09/08 09:29:21;;;;;;;7.43;6.47;;;;;;;19.01;100.00;99802.41;6223017;28;20075;-87
2022/09/08 09:32:34;;;;;;;10.32;6.35;;;;;;;19.01;100.00;99815.50;6229868;28;20057;-86
2022/09/08 09:35:54;;;;;;;7.68;6.07;;;;;;;18.91;100.00;99810.63;6231446;28;20396;-87
2022/09/08 09:39:32;;;;;;;10.80;6.32;;;;;;;18.89;100.00;99809.19;6230319;28;20081;-87
2022/09/08 09:42:50;;;;;;;7.45;6.30;;;;;;;18.85;100.00;99813.19;6224802;28;20401;-87
2022/09/08 09:46:42;;;;;;;7.40;6.38;;;;;;;18.79;100.00;99816.59;6235381;28;20127;-86
2022/09/08 09:50:22;;;;;;;5.80;5.20;;;;;;;18.70;100.00;99816.69;6142228;28;20051;-86
2022/09/08 09:53:38;;;;;;;6.55;5.82;;;;;;;18.72;100.00;99821.75;6162570;28;20059;-86
2022/09/08 09:56:58;;;;;;;6.30;5.13;;;;;;;18.69;100.00;99824.78;6163910;28;20050;-87
2022/09/08 10:00:25;;;;;;;4.88;4.15;;;;;;;18.49;100.00;99828.06;6226038;28;20057;-87
2022/09/08 10:03:43;;;;;;;5.47;4.55;;;;;;;18.23;100.00;99823.38;6230090;28;20042;-87
2022/09/08 10:06:56;;;;;;;7.95;4.55;;;;;;;18.01;100.00;99824.41;6230292;28;20057;-87
2022/09/08 10:10:34;;;;;;;5.90;5.00;;;;;;;17.76;100.00;99829.97;6232274;28;20434;-87
2022/09/08 10:14:01;;;;;;;5.45;4.28;;;;;;;17.53;100.00;99830.09;6215587;28;20093;-87
2022/09/08 10:17:45;;;;;;;5.22;4.72;;;;;;;17.28;100.00;99823.56;6230365;28;20050;-88
2022/09/08 10:21:10;;;;;;;3.70;3.28;;;;;;;17.11;100.00;99830.78;6219016;28;20061;-88
2022/09/08 10:24:40;;;;;;;5.28;3.33;;;;;;;17.06;100.00;99827.91;6218576;28;20080;-88
2022/09/08 10:28:03;;;;;;;4.70;2.77;;;;;;;16.80;100.00;99829.16;6278179;28;20087;-88
2022/09/08 10:31:20;;;;;;;5.78;3.10;;;;;;;16.73;100.00;99828.22;6284904;28;20158;-88
2022/09/08 10:34:40;;;;;;;5.00;3.35;;;;;;;16.69;100.00;99821.72;6286239;28;20055;-89
2022/09/08 10:38:14;;;;;;;5.20;4.68;;;;;;;16.77;100.00;99822.44;6284325;28;20263;-88
2022/09/08 10:41:35;;;;;;;4.85;4.20;;;;;;;16.86;100.00;99822.41;6280507;28;20051;-89
2022/09/08 10:44:55;;;;;;;5.90;4.38;;;;;;;16.95;100.00;99818.72;6261017;28;20041;-91
2022/09/08 10:48:16;;;;;;;5.18;3.85;;;;;;;16.95;100.00;99824.75;6277052;28;20048;-90
2022/09/08 10:51:36;;;;;;;7.38;4.15;;;;;;;16.98;100.00;99818.34;6268232;28;20037;-91
2022/09/08 10:55:07;;;;;;;6.45;4.28;;;;;;;17.03;100.00;99809.97;6286208;28;20133;-92
2022/09/08 10:58:15;;;;;;;;;;;;;;;17.09;100.00;99804.00;6283227;28;20569;-93
2022/09/08 11:01:44;;;;;;;5.13;4.63;;;;;;;17.07;100.00;99806.81;6302248;28;19924;-95
2022/09/08 11:05:16;;;;;;;8.38;4.90;;;;;;;17.01;100.00;99800.47;6280373;28;20048;-96
2022/09/08 11:08:37;;;;;;;5.60;5.00;;;;;;;16.99;100.00;99801.66;6254024;28;20053;-93
2022/09/08 11:12:17;;;;;;;6.30;5.15;;;;;;;17.10;100.00;99803.03;6284797;28;20171;-94
2022/09/08 11:15:37;;;;;;;6.45;5.47;;;;;;;17.16;100.00;99795.25;6283957;28;20542;-94
2022/09/08 11:19:28;;;;;;;7.03;6.32;;;;;;;17.20;100.00;99798.31;6283973;28;20040;-93
2022/09/08 11:23:14;;;;;;;7.50;6.00;;;;;;;17.21;100.00;99797.31;6194048;28;20276;-93
2022/09/08 11:26:35;;;;;;;8.55;6.13;;;;;;;17.17;100.00;99807.34;6121330;29;20384;-94
2022/09/08 11:29:38;;;;;;;8.77;6.72;;;;;;;17.23;100.00;99803.97;6137246;29;20449;-93
2022/09/08 11:33:17;;;;;;;9.73;6.85;;;;;;;17.23;100.00;99817.06;6137085;29;20051;-93
2022/09/08 11:37:10;;;;;;;9.57;7.50;;;;;;;16.93;100.00;99812.84;6136837;29;20576;-92
2022/09/08 11:40:38;;;;;;;8.90;6.97;;;;;;;16.70;100.00;99812.91;6067122;29;20044;-91
2022/09/08 11:43:58;;;;;;;10.27;8.07;;;;;;;16.62;100.00;99812.94;6047088;29;20085;-91
2022/09/08 11:47:24;;;;;;;10.95;9.32;;;;;;;16.58;100.00;99815.94;6067155;29;20461;-90
2022/09/08 11:50:37;;;;;;;13.05;9.27;;;;;;;16.60;100.00;99815.75;6067295;29;20546;-90
2022/09/08 11:54:14;;;;;;;14.88;10.45;;;;;;;16.61;100.00;99821.78;6068120;29;20052;-91
2022/09/08 11:58:11;;;;;;;12.07;9.50;;;;;;;16.68;100.00;99813.06;6088685;28;20097;-91
2022/09/08 12:01:41;;;;;;;12.20;10.25;;;;;;;16.82;100.00;99819.34;6156318;28;20063;-91
2022/09/08 12:05:01;;;;;;;12.87;10.90;;;;;;;16.79;100.00;99827.50;6159826;28;20043;-92
2022/09/08 12:08:27;;;;;;;11.82;9.88;;;;;;;16.84;100.00;99826.97;6200762;28;20326;-94
2022/09/08 12:12:03;;;;;;;11.93;10.23;;;;;;;16.69;100.00;99821.72;6283617;28;20087;-93
2022/09/08 12:15:31;;;;;;;9.82;8.30;;;;;;;16.66;100.00;99822.88;6282089;28;20095;-90
2022/09/08 12:18:55;;;;;;;8.98;7.75;;;;;;;16.60;100.00;99830.63;6285019;28;20041;-96
2022/09/08 12:22:27;;;;;;;7.05;6.35;;;;;;;16.42;100.00;99821.31;6279810;28;20040;-90
2022/09/08 12:25:46;;;;;;;9.48;7.13;;;;;;;16.51;100.00;99822.84;6278208;28;20087;-91
2022/09/08 12:29:41;;;;;;;9.57;7.85;;;;;;;16.56;100.00;99819.72;6280067;28;20079;-92
2022/09/08 12:33:04;;;;;;;8.82;7.15;;;;;;;16.78;100.00;99820.69;6280965;28;20549;-92
2022/09/08 12:36:32;;;;;;;9.35;7.38;;;;;;;16.78;100.00;99828.53;6267417;28;20044;-92
2022/09/08 12:40:30;;;;;;;8.18;7.18;;;;;;;16.68;100.00;99823.50;6210369;28;20730;-92
2022/09/08 12:43:40;;;;;;;7.68;6.72;;;;;;;16.57;100.00;99821.31;6158986;28;20057;-91
2022/09/08 12:47:24;;;;;;;9.07;7.07;;;;;;;16.59;100.00;99814.13;6149878;28;20528;-91
2022/09/08 12:50:49;;;;;;;8.27;7.03;;;;;;;16.51;100.00;99817.63;6156161;28;20043;-91
2022/09/08 12:54:27;;;;;;;7.90;6.53;;;;;;;16.48;100.00;99817.19;6158597;28;20054;-91
2022/09/08 12:57:41;;;;;;;7.90;6.40;;;;;;;16.48;100.00;99815.38;6151896;28;20505;-91
2022/09/08 13:00:56;;;;;;;7.00;6.30;;;;;;;16.58;100.00;99815.94;6153332;28;20080;-92
2022/09/08 13:04:08;;;;;;;7.50;6.07;;;;;;;16.60;100.00;99818.38;6158945;28;20051;-91
2022/09/08 13:07:28;;;;;;;7.03;6.32;;;;;;;16.61;100.00;99822.59;6158889;28;20055;-91
2022/09/08 13:10:40;;;;;;;6.65;5.93;;;;;;;16.62;100.00;99818.19;6142742;28;20055;-91
2022/09/08 13:13:49;;;;;;;8.25;6.22;;;;;;;16.66;100.00;99828.09;6192503;28;20065;-92
2022/09/08 13:17:23;;;;;;;8.15;7.32;;;;;;;16.76;100.00;99827.84;6264960;28;20135;-92
2022/09/08 13:20:47;;;;;;;7.50;6.40;;;;;;;16.79;100.00;99830.13;6274504;28;20032;-91
2022/09/08 13:24:05;;;;;;;6.97;6.10;;;;;;;16.81;100.00;99830.75;6269015;28;20062;-90
2022/09/08 13:27:19;;;;;;;5.82;5.22;;;;;;;16.70;100.00;99836.41;6294364;28;20516;-89
2022/09/08 13:30:29;;;;;;;7.80;5.25;;;;;;;16.63;100.00;99832.88;6274010;28;20127;-91
2022/09/08 13:33:39;;;;;;;5.70;5.00;;;;;;;16.57;100.00;99840.44;6278474;28;20048;-92
2022/09/08 13:37:09;;;;;;;6.35;5.75;;;;;;;16.58;100.00;99839.44;6285394;28;20296;-91
2022/09/08 13:40:32;;;;;;;6.97;5.60;;;;;;;16.53;100.00;99843.59;6283474;28;20565;-91
2022/09/08 13:43:53;;;;;;;7.00;5.22;;;;;;;16.49;100.00;99840.50;6281858;28;20572;-92
2022/09/08 13:47:26;;;;;;;8.20;5.45;;;;;;;16.50;100.00;99839.53;6275783;28;20051;-92
2022/09/08 13:50:47;;;;;;;7.95;5.07;;;;;;;16.35;100.00;99849.94;6274722;28;20174;-92
2022/09/08 13:54:05;;;;;;;5.78;4.85;;;;;;;16.18;100.00;99855.47;6275287;28;20088;-95
2022/09/08 13:57:26;;;;;;;5.45;4.90;;;;;;;16.15;100.00;99849.59;6282558;28;20044;-93
2022/09/08 14:00:28;;;;;;;8.65;4.95;;;;;;;16.18;100.00;99855.47;6279027;28;20501;-94
2022/09/08 14:03:35;;;;;;;7.05;5.47;;;;;;;16.19;100.00;99847.44;6285637;28;20549;-92
2022/09/08 14:06:56;;;;;;;6.22;4.93;;;;;;;16.11;100.00;99858.75;6277475;28;20041;-94
2022/09/08 14:10:15;;;;;;;7.55;6.03;;;;;;;16.08;100.00;99860.91;6284530;28;20071;-94
2022/09/08 14:13:37;;;;;;;9.47;6.03;;;;;;;16.09;100.00;99865.94;6293418;28;20053;-96
2022/09/08 14:16:53;;;;;;;12.43;6.50;;;;;;;16.09;100.00;99865.94;6274651;28;20048;-96
2022/09/08 14:20:27;;;;;;;7.85;6.03;;;;;;;16.15;100.00;99872.28;6260083;28;20178;-96
2022/09/08 14:23:57;;;;;;;12.77;6.10;;;;;;;16.21;100.00;99873.38;6278501;28;20432;-96
2022/09/08 14:27:30;;;;;;;18.05;6.85;;;;;;;16.18;100.00;99881.56;6261902;28;20076;-90
2022/09/08 14:31:10;;;;;;;10.85;7.57;;;;;;;16.24;100.00;99871.22;6279864;28;20037;-96
2022/09/08 14:34:51;;;;;;;13.20;6.95;;;;;;;16.30;100.00;99885.41;6283052;28;20040;-93
2022/09/08 14:38:13;;;;;;;8.80;5.43;;;;;;;16.35;100.00;99888.31;6275564;28;20231;-89
2022/09/08 14:41:24;;;;;;;6.55;4.35;;;;;;;16.56;100.00;99890.25;6276396;28;20040;-92
2022/09/08 14:44:47;;;;;;;;;;;;;;;16.72;100.00;99882.28;6283228;28;20062;-91
2022/09/08 14:47:52;;;;;;;5.40;4.35;;;;;;;16.85;100.00;99888.75;6273961;28;19928;-95
2022/09/08 14:51:30;;;;;;;5.90;5.28;;;;;;;17.58;100.00;99889.75;6257271;28;20041;-95
2022/09/08 14:55:14;;;;;;;8.38;5.90;;;;;;;18.61;100.00;99885.22;6288624;28;20037;-96
2022/09/08 14:58:42;;;;;;;8.57;6.25;;;;;;;19.65;100.00;99880.00;6265342;28;20343;-96
2022/09/08 15:01:55;;;;;;;3.38;3.08;;;;;;;20.32;100.00;99870.50;6272174;28;20049;-94
2022/09/08 15:05:24;;;;;;;2.88;2.67;;;;;;;20.78;100.00;99882.84;6279933;28;20041;-96